createdAt,value
2023-03-12T09:27:38.123Z,19.69
2023-03-12T09:28:38.106Z,19.72
2023-03-12T09:29:49.639Z,19.72
2023-03-12T09:30:39.133Z,19.76
2023-03-12T09:31:38.079Z,19.69
2023-03-12T09:32:38.095Z,19.67
2023-03-12T09:33:38.126Z,19.64
2023-03-12T09:34:38.071Z,19.72
2023-03-12T09:35:38.105Z,19.73
2023-03-12T09:36:38.036Z,19.73
2023-03-12T09:37:38.045Z,19.69
2023-03-12T09:38:38.063Z,19.76
2023-03-12T09:39:38.018Z,19.75
2023-03-12T09:40:38.013Z,19.76
2023-03-12T09:41:38.007Z,19.75
2023-03-12T09:42:37.983Z,19.73
2023-03-12T09:43:37.973Z,19.76
2023-03-12T09:44:37.969Z,19.76
2023-03-12T09:45:37.966Z,19.78
2023-03-12T09:46:37.971Z,19.74
2023-03-12T09:47:37.953Z,19.79
2023-03-12T09:48:37.950Z,19.78
2023-03-12T09:49:37.937Z,19.79
2023-03-12T09:50:37.926Z,19.83
2023-03-12T09:51:37.933Z,19.83
2023-03-12T09:52:37.912Z,19.82
2023-03-12T09:53:37.901Z,19.85
2023-03-12T09:54:37.895Z,19.86
2023-03-12T09:55:37.900Z,19.80
2023-03-12T09:56:37.885Z,19.80
2023-03-12T09:57:37.869Z,19.85
2023-03-12T09:58:37.867Z,19.89
2023-03-12T09:59:37.876Z,19.83
2023-03-12T10:00:37.859Z,19.82
2023-03-12T10:01:37.867Z,19.83
2023-03-12T10:02:37.827Z,19.74
2023-03-12T10:03:37.983Z,19.83
2023-03-12T10:04:56.385Z,19.79
2023-03-12T10:05:37.797Z,19.79
2023-03-12T10:06:37.783Z,19.77
2023-03-12T10:07:37.783Z,19.85
2023-03-12T10:08:37.759Z,19.83
2023-03-12T10:09:37.746Z,19.82
2023-03-12T10:10:37.737Z,19.88
2023-03-12T10:11:37.720Z,19.81
2023-03-12T10:12:37.728Z,19.88
2023-03-12T10:13:37.761Z,19.86
2023-03-12T10:14:37.707Z,19.81
2023-03-12T10:15:37.725Z,19.83
2023-03-12T10:16:37.682Z,19.86
2023-03-12T10:17:37.729Z,19.83
2023-03-12T10:18:37.759Z,19.88
2023-03-12T10:19:37.650Z,19.88
2023-03-12T10:20:37.649Z,19.86
2023-03-12T10:21:37.649Z,19.92
2023-03-12T10:22:37.648Z,19.89
2023-03-12T10:23:37.634Z,19.91
2023-03-12T10:24:37.627Z,19.91
2023-03-12T10:25:37.619Z,19.89
2023-03-12T10:26:37.596Z,19.95
2023-03-12T10:27:37.593Z,19.91
2023-03-12T10:28:37.592Z,19.96
2023-03-12T10:29:37.588Z,19.95
2023-03-12T10:30:37.581Z,19.95
2023-03-12T10:31:37.570Z,19.96
2023-03-12T10:32:37.599Z,19.96
2023-03-12T10:33:37.557Z,20.00
2023-03-12T10:34:37.582Z,19.98
2023-03-12T10:35:37.622Z,20.01
2023-03-12T10:36:37.538Z,20.04
2023-03-12T10:37:37.537Z,20.01
2023-03-12T10:38:37.543Z,20.04
2023-03-12T10:39:37.527Z,20.04
2023-03-12T10:40:37.522Z,20.05
2023-03-12T10:41:37.517Z,20.01
2023-03-12T10:42:37.543Z,20.07
2023-03-12T10:43:37.511Z,20.07
2023-03-12T10:44:37.512Z,20.08
2023-03-12T10:45:37.517Z,20.13
2023-03-12T10:46:37.551Z,20.14
2023-03-12T10:47:37.497Z,20.12
2023-03-12T10:48:37.483Z,20.10
2023-03-12T10:49:37.544Z,20.12
2023-03-12T10:50:37.471Z,20.16
2023-03-12T10:51:37.476Z,20.17
2023-03-12T10:52:37.456Z,20.13
2023-03-12T10:53:37.468Z,20.19
2023-03-12T10:54:37.450Z,20.14
2023-03-12T10:55:37.444Z,20.17
2023-03-12T10:56:37.451Z,20.19
2023-03-12T10:57:37.443Z,20.20
2023-03-12T10:58:37.449Z,20.22
2023-03-12T10:59:37.432Z,20.22
2023-03-12T11:00:37.451Z,20.23
2023-03-12T11:01:37.449Z,20.19
2023-03-12T11:02:37.411Z,20.25
2023-03-12T11:03:37.406Z,20.25
2023-03-12T11:04:37.399Z,20.25
2023-03-12T11:05:37.475Z,20.23
2023-03-12T11:06:37.416Z,20.25
2023-03-12T11:07:37.416Z,20.23
2023-03-12T11:08:37.411Z,20.25
2023-03-12T11:09:37.402Z,20.32
2023-03-12T11:10:37.358Z,20.26
2023-03-12T11:11:37.361Z,20.32
2023-03-12T11:12:37.371Z,20.26
2023-03-12T11:13:37.359Z,20.26
2023-03-12T11:14:37.336Z,20.31
2023-03-12T11:15:37.325Z,20.32
2023-03-12T11:16:37.329Z,20.34
2023-03-12T11:17:37.312Z,20.29
2023-03-12T11:18:37.304Z,20.35
2023-03-12T11:19:37.340Z,20.41
2023-03-12T11:20:37.268Z,20.34
2023-03-12T11:21:37.267Z,20.34
2023-03-12T11:22:37.291Z,20.38
2023-03-12T11:23:37.265Z,20.33
2023-03-12T11:24:37.228Z,20.39
2023-03-12T11:25:37.221Z,20.35
2023-03-12T11:26:37.208Z,20.38
2023-03-12T11:27:37.208Z,20.32
2023-03-12T11:28:37.241Z,20.37
2023-03-12T11:29:37.261Z,20.35
2023-03-12T11:30:37.246Z,20.34
2023-03-12T11:31:37.249Z,20.41
2023-03-12T11:32:37.194Z,20.40
2023-03-12T11:33:37.150Z,20.35
2023-03-12T11:34:37.150Z,20.31
2023-03-12T11:35:37.151Z,20.40
2023-03-12T11:36:37.118Z,20.37
2023-03-12T11:37:39.820Z,20.38
2023-03-12T11:38:37.097Z,20.31
2023-03-12T11:39:37.089Z,20.34
2023-03-12T11:40:37.084Z,20.40
2023-03-12T11:41:37.078Z,20.46
2023-03-12T11:42:37.081Z,20.39
2023-03-12T11:43:43.656Z,20.38
2023-03-12T11:44:38.021Z,20.40
2023-03-12T11:45:37.055Z,20.39
2023-03-12T11:46:37.068Z,20.43
2023-03-12T11:47:37.125Z,20.41
2023-03-12T11:48:37.005Z,20.42
2023-03-12T11:49:36.966Z,20.41
2023-03-12T11:50:36.968Z,20.45
2023-03-12T11:51:36.959Z,20.46
2023-03-12T11:52:36.943Z,20.45
2023-03-12T11:53:36.948Z,20.48
2023-03-12T11:54:36.946Z,20.43
2023-03-12T11:55:36.936Z,20.41
2023-03-12T11:56:36.962Z,20.48
2023-03-12T11:57:36.919Z,20.46
2023-03-12T11:58:36.905Z,20.46
2023-03-12T11:59:36.886Z,20.40
2023-03-12T12:00:36.913Z,20.47
2023-03-12T12:01:37.085Z,20.46
2023-03-12T12:02:36.890Z,20.50
2023-03-12T12:03:36.949Z,20.50
2023-03-12T12:04:36.860Z,20.46
2023-03-12T12:05:36.863Z,20.49
2023-03-12T12:06:36.848Z,20.52
2023-03-12T12:07:36.915Z,20.43
2023-03-12T12:08:36.825Z,20.49
2023-03-12T12:09:36.836Z,20.54
2023-03-12T12:10:36.824Z,20.42
2023-03-12T12:11:36.807Z,20.51
2023-03-12T12:12:36.804Z,20.45
2023-03-12T12:13:36.800Z,20.51
2023-03-12T12:14:36.780Z,20.46
2023-03-12T12:15:36.778Z,20.49
2023-03-12T12:16:36.821Z,20.43
2023-03-12T12:17:36.776Z,20.50
2023-03-12T12:18:36.778Z,20.48
2023-03-12T12:19:36.753Z,20.42
2023-03-12T12:20:36.743Z,20.41
2023-03-12T12:21:36.731Z,20.42
2023-03-12T12:22:36.743Z,20.47
2023-03-12T12:23:36.720Z,20.42
2023-03-12T12:24:36.710Z,20.41
2023-03-12T12:25:36.696Z,20.41
2023-03-12T12:26:36.707Z,20.44
2023-03-12T12:27:36.699Z,20.44
2023-03-12T12:28:36.668Z,20.45
2023-03-12T12:29:36.953Z,20.46
2023-03-12T12:30:36.653Z,20.41
2023-03-12T12:31:36.677Z,20.44
2023-03-12T12:32:36.675Z,20.48
2023-03-12T12:33:36.625Z,20.41
2023-03-12T12:34:36.611Z,20.40
2023-03-12T12:35:36.650Z,20.38
2023-03-12T12:36:36.588Z,20.46
2023-03-12T12:37:36.581Z,20.43
2023-03-12T12:38:36.582Z,20.43
2023-03-12T12:39:36.576Z,20.49
2023-03-12T12:40:36.564Z,20.48
2023-03-12T12:41:36.550Z,20.49
2023-03-12T12:42:36.553Z,20.45
2023-03-12T12:43:36.527Z,20.46
2023-03-12T12:44:36.519Z,20.46
2023-03-12T12:45:36.537Z,20.48
2023-03-12T12:46:36.502Z,20.48
2023-03-12T12:47:36.500Z,20.45
2023-03-12T12:48:36.529Z,20.46
2023-03-12T12:49:36.495Z,20.48
2023-03-12T12:50:36.479Z,20.43
2023-03-12T12:51:36.481Z,20.50
2023-03-12T12:52:36.468Z,20.45
2023-03-12T12:53:36.493Z,20.49
2023-03-12T12:54:36.442Z,20.45
2023-03-12T12:55:36.450Z,20.51
2023-03-12T12:56:36.424Z,20.50
2023-03-12T12:57:36.439Z,20.48
2023-03-12T12:58:36.406Z,20.49
2023-03-12T12:59:36.389Z,20.50
2023-03-12T13:00:36.383Z,20.52
2023-03-12T13:01:36.392Z,20.49
2023-03-12T13:02:36.380Z,20.50
2023-03-12T13:03:36.349Z,20.54
2023-03-12T13:04:36.344Z,20.55
2023-03-12T13:05:36.328Z,20.56
2023-03-12T13:06:39.286Z,20.56
2023-03-12T13:07:36.345Z,20.56
2023-03-12T13:08:36.292Z,20.56
2023-03-12T13:09:36.288Z,20.53
2023-03-12T13:10:36.284Z,20.59
2023-03-12T13:11:36.283Z,20.54
2023-03-12T13:12:36.257Z,20.52
2023-03-12T13:13:36.254Z,20.55
2023-03-12T13:14:36.227Z,20.52
2023-03-12T13:15:36.313Z,20.55
2023-03-12T13:16:36.220Z,20.56
2023-03-12T13:17:36.209Z,20.53
2023-03-12T13:18:37.872Z,20.55
2023-03-12T13:19:36.353Z,20.55
2023-03-12T13:20:36.352Z,20.58
2023-03-12T13:21:36.342Z,20.50
2023-03-12T13:22:36.324Z,20.51
2023-03-12T13:23:36.337Z,20.43
2023-03-12T13:24:36.312Z,20.46
2023-03-12T13:25:36.311Z,20.49
2023-03-12T13:26:36.298Z,20.60
2023-03-12T13:27:36.301Z,20.57
2023-03-12T13:28:36.307Z,20.52
2023-03-12T13:29:36.277Z,20.52
2023-03-12T13:30:36.256Z,20.52
2023-03-12T13:31:36.340Z,20.48
2023-03-12T13:32:36.279Z,20.51
2023-03-12T13:33:36.235Z,20.48
2023-03-12T13:34:36.228Z,20.46
2023-03-12T13:35:36.282Z,20.46
2023-03-12T13:36:36.191Z,20.42
2023-03-12T13:37:36.174Z,20.48
2023-03-12T13:38:36.195Z,20.51
2023-03-12T13:39:36.139Z,20.51
2023-03-12T13:40:36.216Z,20.48
2023-03-12T13:41:36.112Z,20.48
2023-03-12T13:42:36.093Z,20.49
2023-03-12T13:43:36.080Z,20.46
2023-03-12T13:44:36.057Z,20.49
2023-03-12T13:45:36.046Z,20.46
2023-03-12T13:46:36.095Z,20.52
2023-03-12T13:47:36.032Z,20.52
2023-03-12T13:48:36.018Z,20.52
2023-03-12T13:49:35.998Z,20.49
2023-03-12T13:50:35.961Z,20.51
2023-03-12T13:51:35.949Z,20.51
2023-03-12T13:52:35.930Z,20.54
2023-03-12T13:53:36.461Z,20.55
2023-03-12T13:54:35.897Z,20.55
2023-03-12T13:55:35.893Z,20.55
2023-03-12T13:56:35.869Z,20.49
2023-03-12T13:57:37.825Z,20.55
2023-03-12T13:58:35.841Z,20.57
2023-03-12T13:59:35.834Z,20.55
2023-03-12T14:00:35.821Z,20.52
2023-03-12T14:01:35.845Z,20.52
2023-03-12T14:02:35.823Z,20.58
2023-03-12T14:03:36.440Z,20.54
2023-03-12T14:04:35.786Z,20.53
2023-03-12T14:05:35.756Z,20.56
2023-03-12T14:06:35.763Z,20.59
2023-03-12T14:07:35.746Z,20.62
2023-03-12T14:08:35.748Z,20.58
2023-03-12T14:09:35.729Z,20.59
2023-03-12T14:10:35.728Z,20.62
2023-03-12T14:11:35.699Z,20.58
2023-03-12T14:12:35.730Z,20.58
2023-03-12T14:13:35.688Z,20.62
2023-03-12T14:14:35.676Z,20.61
2023-03-12T14:15:35.670Z,20.62
2023-03-12T14:16:35.691Z,20.59
2023-03-12T14:17:35.653Z,20.64
2023-03-12T14:18:35.643Z,20.67
2023-03-12T14:19:35.636Z,20.68
2023-03-12T14:20:35.614Z,20.67
2023-03-12T14:21:35.611Z,20.65
2023-03-12T14:22:35.638Z,20.68
2023-03-12T14:23:35.588Z,20.70
2023-03-12T14:24:35.593Z,20.71
2023-03-12T14:25:35.571Z,20.73
2023-03-12T14:26:35.557Z,20.70
2023-03-12T14:27:35.555Z,20.70
2023-03-12T14:28:35.551Z,20.76
2023-03-12T14:29:35.542Z,20.73
2023-03-12T14:30:35.526Z,20.72
2023-03-12T14:31:35.595Z,20.64
2023-03-12T14:32:35.569Z,20.76
2023-03-12T14:33:35.518Z,20.69
2023-03-12T14:34:35.488Z,20.71
2023-03-12T14:35:35.499Z,20.74
2023-03-12T14:36:35.478Z,20.71
2023-03-12T14:37:35.465Z,20.74
2023-03-12T14:38:35.468Z,20.72
2023-03-12T14:39:35.465Z,20.72
2023-03-12T14:40:35.441Z,20.77
2023-03-12T14:41:35.430Z,20.76
2023-03-12T14:42:35.416Z,20.69
2023-03-12T14:43:35.454Z,20.71
2023-03-12T14:44:35.415Z,20.77
2023-03-12T14:45:35.415Z,20.71
2023-03-12T14:46:35.473Z,20.77
2023-03-12T14:47:35.380Z,20.77
2023-03-12T14:48:35.392Z,20.72
2023-03-12T14:49:35.372Z,20.72
2023-03-12T14:50:35.355Z,20.78
2023-03-12T14:51:35.376Z,20.75
2023-03-12T14:52:35.353Z,20.77
2023-03-12T14:53:35.353Z,20.81
2023-03-12T14:54:35.349Z,20.75
2023-03-12T14:55:35.296Z,20.77
2023-03-12T14:56:35.315Z,20.75
2023-03-12T14:57:35.282Z,20.77
2023-03-12T14:58:35.269Z,20.78
2023-03-12T14:59:35.329Z,20.75
2023-03-12T15:00:35.259Z,20.80
2023-03-12T15:01:35.279Z,20.80
2023-03-12T15:02:35.228Z,20.81
2023-03-12T15:03:35.243Z,20.80
2023-03-12T15:04:35.295Z,20.77
2023-03-12T15:05:35.196Z,20.80
2023-03-12T15:06:35.199Z,20.83
2023-03-12T15:07:35.167Z,20.80
2023-03-12T15:08:35.158Z,20.78
2023-03-12T15:09:35.162Z,20.80
2023-03-12T15:10:35.129Z,20.75
2023-03-12T15:11:35.111Z,20.78
2023-03-12T15:12:35.112Z,20.78
2023-03-12T15:13:35.107Z,20.77
2023-03-12T15:14:35.089Z,20.78
2023-03-12T15:15:35.083Z,20.77
2023-03-12T15:16:35.170Z,20.78
2023-03-12T15:17:35.111Z,20.80
2023-03-12T15:18:35.029Z,20.77
2023-03-12T15:19:35.024Z,20.75
2023-03-12T15:20:35.036Z,20.75
2023-03-12T15:21:35.000Z,20.75
2023-03-12T15:22:34.987Z,20.78
2023-03-12T15:23:34.969Z,20.77
2023-03-12T15:24:34.957Z,20.75
2023-03-12T15:25:34.932Z,20.83
2023-03-12T15:26:34.936Z,20.76
2023-03-12T15:27:34.956Z,20.77
2023-03-12T15:28:34.909Z,20.77
2023-03-12T15:29:34.901Z,20.78
2023-03-12T15:30:34.884Z,20.72
2023-03-12T15:31:35.010Z,20.78
2023-03-12T15:32:34.931Z,20.75
2023-03-12T15:33:34.863Z,20.75
2023-03-12T15:34:34.925Z,20.75
2023-03-12T15:35:34.992Z,20.80
2023-03-12T15:36:34.904Z,20.78
2023-03-12T15:37:34.894Z,20.79
2023-03-12T15:38:34.829Z,20.81
2023-03-12T15:39:34.831Z,20.82
2023-03-12T15:40:34.816Z,20.81
2023-03-12T15:41:34.799Z,20.82
2023-03-12T15:42:34.802Z,20.82
2023-03-12T15:43:34.796Z,20.82
2023-03-12T15:44:34.795Z,20.87
2023-03-12T15:45:34.940Z,20.86
2023-03-12T15:46:35.033Z,20.81
2023-03-12T15:47:34.767Z,20.79
2023-03-12T15:48:34.758Z,20.81
2023-03-12T15:49:34.737Z,20.84
2023-03-12T15:50:34.744Z,20.84
2023-03-12T15:51:34.731Z,20.87
2023-03-12T15:52:34.722Z,20.82
2023-03-12T15:53:34.703Z,20.85
2023-03-12T15:54:34.675Z,20.90
2023-03-12T15:55:34.678Z,20.84
2023-03-12T15:56:34.660Z,20.85
2023-03-12T15:57:34.637Z,20.88
2023-03-12T15:58:34.637Z,20.88
2023-03-12T15:59:34.619Z,20.90
2023-03-12T16:00:34.618Z,20.90
2023-03-12T16:01:34.648Z,20.94
2023-03-12T16:02:34.641Z,20.88
2023-03-12T16:03:34.586Z,20.91
2023-03-12T16:04:34.571Z,20.90
2023-03-12T16:05:34.573Z,20.91
2023-03-12T16:06:34.532Z,20.92
2023-03-12T16:07:34.522Z,20.91
2023-03-12T16:08:34.503Z,20.89
2023-03-12T16:09:34.500Z,20.93
2023-03-12T16:10:34.512Z,20.93
2023-03-12T16:11:34.503Z,20.92
2023-03-12T16:12:34.527Z,21.00
2023-03-12T16:13:34.471Z,21.00
2023-03-12T16:14:34.494Z,20.98
2023-03-12T16:15:34.468Z,20.97
2023-03-12T16:16:34.513Z,20.95
2023-03-12T16:17:34.451Z,20.95
2023-03-12T16:18:34.443Z,20.98
2023-03-12T16:19:34.510Z,21.05
2023-03-12T16:20:34.448Z,20.98
2023-03-12T16:21:34.450Z,21.04
2023-03-12T16:22:34.419Z,20.99
2023-03-12T16:23:34.411Z,21.02
2023-03-12T16:24:34.415Z,21.04
2023-03-12T16:25:34.402Z,20.98
2023-03-12T16:26:34.402Z,21.04
2023-03-12T16:27:34.391Z,21.04
2023-03-12T16:28:34.387Z,21.04
2023-03-12T16:29:34.381Z,21.03
2023-03-12T16:30:34.382Z,21.03
2023-03-12T16:31:34.445Z,21.06
2023-03-12T16:32:34.435Z,21.04
2023-03-12T16:33:34.367Z,21.00
2023-03-12T16:34:34.364Z,21.01
2023-03-12T16:35:34.391Z,21.06
2023-03-12T16:36:34.371Z,21.03
2023-03-12T16:37:34.338Z,21.10
2023-03-12T16:38:34.337Z,21.03
2023-03-12T16:39:34.339Z,21.06
2023-03-12T16:40:34.391Z,21.06
2023-03-12T16:41:34.334Z,21.10
2023-03-12T16:42:34.393Z,21.12
2023-03-12T16:43:34.321Z,21.10
2023-03-12T16:44:34.332Z,21.09
2023-03-12T16:45:34.313Z,21.09
2023-03-12T16:46:34.392Z,21.12
2023-03-12T16:47:34.316Z,21.10
2023-03-12T16:48:34.303Z,21.10
2023-03-12T16:49:34.303Z,21.09
2023-03-12T16:50:34.325Z,21.10
2023-03-12T16:51:34.314Z,21.13
2023-03-12T16:52:34.305Z,21.13
2023-03-12T16:53:34.296Z,21.12
2023-03-12T16:54:34.294Z,21.13
2023-03-12T16:55:34.290Z,21.08
2023-03-12T16:56:34.282Z,21.16
2023-03-12T16:57:34.285Z,21.16
2023-03-12T16:58:34.285Z,21.16
2023-03-12T16:59:34.288Z,21.12
2023-03-12T17:00:34.283Z,21.12
2023-03-12T17:01:34.327Z,21.15
2023-03-12T17:02:34.268Z,21.13
2023-03-12T17:03:36.178Z,21.13
2023-03-12T17:04:34.415Z,21.19
2023-03-12T17:05:34.324Z,21.15
2023-03-12T17:06:34.331Z,21.14
2023-03-12T17:07:34.348Z,21.14
2023-03-12T17:08:34.318Z,21.19
2023-03-12T17:09:34.320Z,21.20
2023-03-12T17:10:34.321Z,21.17
2023-03-12T17:11:34.323Z,21.15
2023-03-12T17:12:34.327Z,21.17
2023-03-12T17:13:34.305Z,21.16
2023-03-12T17:14:34.304Z,21.14
2023-03-12T17:15:34.437Z,21.17
2023-03-12T17:16:34.294Z,21.22
2023-03-12T17:17:34.296Z,21.17
2023-03-12T17:18:34.288Z,21.19
2023-03-12T17:19:34.293Z,21.16
2023-03-12T17:20:34.280Z,21.17
2023-03-12T17:21:34.268Z,21.19
2023-03-12T17:22:34.275Z,21.13
2023-03-12T17:23:34.264Z,21.15
2023-03-12T17:24:34.285Z,21.20
2023-03-12T17:25:34.260Z,21.19
2023-03-12T17:26:34.275Z,21.14
2023-03-12T17:27:34.258Z,21.21
2023-03-12T17:28:34.261Z,21.17
2023-03-12T17:29:34.250Z,21.14
2023-03-12T17:30:34.258Z,21.17
2023-03-12T17:31:34.302Z,21.17
2023-03-12T17:32:34.287Z,21.15
2023-03-12T17:33:34.231Z,21.19
2023-03-12T17:34:34.235Z,21.19
2023-03-12T17:35:34.237Z,21.15
2023-03-12T17:36:34.227Z,21.20
2023-03-12T17:37:34.228Z,21.17
2023-03-12T17:38:34.222Z,21.15
2023-03-12T17:39:34.220Z,21.15
2023-03-12T17:40:34.223Z,21.18
2023-03-12T17:41:34.213Z,21.15
2023-03-12T17:42:34.240Z,21.20
2023-03-12T17:43:34.205Z,21.11
2023-03-12T17:44:34.209Z,21.15
2023-03-12T17:45:34.174Z,21.17
2023-03-12T17:46:34.230Z,21.15
2023-03-12T17:47:34.177Z,21.20
2023-03-12T17:48:34.175Z,21.15
2023-03-12T17:49:34.154Z,21.15
2023-03-12T17:50:34.150Z,21.17
2023-03-12T17:51:34.126Z,21.15
2023-03-12T17:52:34.135Z,21.09
2023-03-12T17:53:34.116Z,21.14
2023-03-12T17:54:34.114Z,21.14
2023-03-12T17:55:34.089Z,21.15
2023-03-12T17:56:34.089Z,21.14
2023-03-12T17:57:34.062Z,21.15
2023-03-12T17:58:34.076Z,21.14
2023-03-12T17:59:34.053Z,21.21
2023-03-12T18:00:34.053Z,21.14
2023-03-12T18:01:34.034Z,21.14
2023-03-12T18:02:34.033Z,21.15
2023-03-12T18:03:34.118Z,21.14
2023-03-12T18:04:34.062Z,21.15
2023-03-12T18:05:34.006Z,21.15
2023-03-12T18:06:34.009Z,21.15
2023-03-12T18:07:33.978Z,21.17
2023-03-12T18:08:33.983Z,21.15
2023-03-12T18:09:33.973Z,21.10
2023-03-12T18:10:33.954Z,21.12
2023-03-12T18:11:33.941Z,21.13
2023-03-12T18:12:33.928Z,21.13
2023-03-12T18:13:33.914Z,21.13
2023-03-12T18:14:33.916Z,21.13
2023-03-12T18:15:33.906Z,21.13
2023-03-12T18:16:33.972Z,21.16
2023-03-12T18:17:33.890Z,21.12
2023-03-12T18:18:33.883Z,21.12
2023-03-12T18:19:35.378Z,21.12
2023-03-12T18:20:39.249Z,21.13
2023-03-12T18:21:34.872Z,21.13
2023-03-12T18:22:33.853Z,21.15
2023-03-12T18:23:33.860Z,21.07
2023-03-12T18:24:33.848Z,21.10
2023-03-12T18:25:33.835Z,21.10
2023-03-12T18:26:33.828Z,21.09
2023-03-12T18:27:33.823Z,21.13
2023-03-12T18:28:33.834Z,21.09
2023-03-12T18:29:33.830Z,21.07
2023-03-12T18:30:33.826Z,21.09
2023-03-12T18:31:33.923Z,21.12
2023-03-12T18:32:33.889Z,21.12
2023-03-12T18:33:33.812Z,21.15
2023-03-12T18:34:33.810Z,21.10
2023-03-12T18:35:33.825Z,21.06
2023-03-12T18:36:33.797Z,21.06
2023-03-12T18:37:33.811Z,21.09
2023-03-12T18:38:33.823Z,21.09
2023-03-12T18:39:33.786Z,21.07
2023-03-12T18:40:33.819Z,21.12
2023-03-12T18:41:33.792Z,21.09
2023-03-12T18:42:33.791Z,21.06
2023-03-12T18:43:33.778Z,21.07
2023-03-12T18:44:33.784Z,21.09
2023-03-12T18:45:33.778Z,21.06
2023-03-12T18:46:33.798Z,21.10
2023-03-12T18:47:33.764Z,21.09
2023-03-12T18:48:33.768Z,21.09
2023-03-12T18:49:33.765Z,21.11
2023-03-12T18:50:33.751Z,21.07
2023-03-12T18:51:33.751Z,21.07
2023-03-12T18:52:33.771Z,21.04
2023-03-12T18:53:33.741Z,21.10
2023-03-12T18:54:33.744Z,21.07
2023-03-12T18:55:33.742Z,21.07
2023-03-12T18:56:33.741Z,21.05
2023-03-12T18:57:33.719Z,21.03
2023-03-12T18:58:33.710Z,21.05
2023-03-12T18:59:33.709Z,21.08
2023-03-12T19:00:33.690Z,21.11
2023-03-12T19:01:33.712Z,21.11
2023-03-12T19:02:33.708Z,20.98
2023-03-12T19:03:33.702Z,21.03
2023-03-12T19:04:33.675Z,21.05
2023-03-12T19:05:33.660Z,21.04
2023-03-12T19:06:49.430Z,21.04
2023-03-12T19:07:36.553Z,21.05
2023-03-12T19:08:33.627Z,21.08
2023-03-12T19:09:33.636Z,21.03
2023-03-12T19:10:33.600Z,21.07
2023-03-12T19:11:33.597Z,21.07
2023-03-12T19:12:45.380Z,21.01
2023-03-12T19:13:34.587Z,21.04
2023-03-12T19:14:33.565Z,21.03
2023-03-12T19:15:33.542Z,21.04
2023-03-12T19:16:33.569Z,21.04
2023-03-12T19:17:33.534Z,20.98
2023-03-12T19:18:33.504Z,21.01
2023-03-12T19:19:33.518Z,20.99
2023-03-12T19:20:33.496Z,21.03
2023-03-12T19:21:33.508Z,21.03
2023-03-12T19:22:33.493Z,21.03
2023-03-12T19:23:33.483Z,20.99
2023-03-12T19:24:33.454Z,20.99
2023-03-12T19:25:33.466Z,21.05
2023-03-12T19:26:33.439Z,21.05
2023-03-12T19:27:33.416Z,20.99
2023-03-12T19:28:33.419Z,21.01
2023-03-12T19:29:33.457Z,20.93
2023-03-12T19:30:33.419Z,20.95
2023-03-12T19:31:33.417Z,21.01
2023-03-12T19:32:43.184Z,21.02
2023-03-12T19:33:34.376Z,20.98
2023-03-12T19:34:33.389Z,20.95
2023-03-12T19:35:33.413Z,20.98
2023-03-12T19:36:33.380Z,20.99
2023-03-12T19:37:33.387Z,20.99
2023-03-12T19:38:33.364Z,20.96
2023-03-12T19:39:33.365Z,21.02
2023-03-12T19:40:33.337Z,21.03
2023-03-12T19:41:33.343Z,20.99
2023-03-12T19:42:33.329Z,20.95
2023-03-12T19:43:33.328Z,20.98
2023-03-12T19:44:33.328Z,20.99
2023-03-12T19:45:33.350Z,20.95
2023-03-12T19:46:33.322Z,21.02
2023-03-12T19:47:33.374Z,20.98
2023-03-12T19:48:33.294Z,20.96
2023-03-12T19:49:33.282Z,20.96
2023-03-12T19:50:33.280Z,20.95
2023-03-12T19:51:33.288Z,20.98
2023-03-12T19:52:33.271Z,20.96
2023-03-12T19:53:33.279Z,20.99
2023-03-12T19:54:33.267Z,20.95
2023-03-12T19:55:33.251Z,20.92
2023-03-12T19:56:33.248Z,21.01
2023-03-12T19:57:33.244Z,20.96
2023-03-12T19:58:33.238Z,20.96
2023-03-12T19:59:33.224Z,20.96
2023-03-12T20:00:33.229Z,20.90
2023-03-12T20:01:33.217Z,20.96
2023-03-12T20:02:33.292Z,20.94
2023-03-12T20:03:33.300Z,20.92
2023-03-12T20:04:33.189Z,20.93
2023-03-12T20:59:33.010Z,20.88
2023-03-12T21:00:33.005Z,20.85
2023-03-12T21:01:33.109Z,20.88
2023-03-12T21:02:33.081Z,20.85
2023-03-12T21:03:33.028Z,20.84
2023-03-12T21:04:33.017Z,20.85
2023-03-12T21:05:33.076Z,20.87
2023-03-12T21:06:33.035Z,20.87
2023-03-12T21:07:33.035Z,20.87
2023-03-12T21:08:33.054Z,20.87
2023-03-12T21:09:33.057Z,20.85
2023-03-12T21:10:33.054Z,20.85
2023-03-12T21:11:33.058Z,20.85
2023-03-12T21:12:33.053Z,20.87
2023-03-12T21:13:33.065Z,20.84
2023-03-12T21:14:33.056Z,20.82
2023-03-12T21:15:33.061Z,20.82
2023-03-12T21:16:33.135Z,20.84
2023-03-12T21:17:33.067Z,20.85
2023-03-12T21:18:33.079Z,20.85
2023-03-12T21:19:33.143Z,20.85
2023-03-12T21:20:33.070Z,20.82
2023-03-12T21:21:33.073Z,20.76
2023-03-12T21:22:33.162Z,20.81
2023-03-12T21:23:33.119Z,20.82
2023-03-12T21:24:33.080Z,20.85
2023-03-12T21:25:33.099Z,20.86
2023-03-12T21:26:33.093Z,20.87
2023-03-12T21:27:44.555Z,20.82
2023-03-12T21:29:33.126Z,20.82
2023-03-12T21:30:33.181Z,20.84
2023-03-12T21:31:33.197Z,20.84
2023-03-12T21:32:33.148Z,20.85
2023-03-12T21:33:33.133Z,20.81
2023-03-12T21:34:33.137Z,20.82
2023-03-12T21:35:33.156Z,20.81
2023-03-12T21:36:33.144Z,20.84
2023-03-12T21:37:33.176Z,20.85
2023-03-12T21:38:33.170Z,20.77
2023-03-12T21:39:33.170Z,20.76
2023-03-12T21:40:33.179Z,20.76
2023-03-12T21:41:33.177Z,20.77
2023-03-12T21:42:33.176Z,20.78
2023-03-12T21:43:33.186Z,20.82
2023-03-12T21:44:33.189Z,20.82
2023-03-12T21:45:33.213Z,20.76
2023-03-12T21:46:33.245Z,20.82
2023-03-12T21:47:33.220Z,20.83
2023-03-12T21:48:33.237Z,20.79
2023-03-12T21:49:33.223Z,20.81
2023-03-12T21:50:33.221Z,20.82
2023-03-12T21:51:33.224Z,20.75
2023-03-12T21:52:33.226Z,20.79
2023-03-12T21:53:33.225Z,20.77
2023-03-12T21:54:33.222Z,20.76
2023-03-12T21:55:33.232Z,20.81
2023-03-12T21:56:33.247Z,20.79
2023-03-12T21:57:33.236Z,20.81
2023-03-12T21:58:33.253Z,20.77
2023-03-12T21:59:33.234Z,20.76
2023-03-12T22:00:33.234Z,20.75
2023-03-12T22:01:33.283Z,20.76
2023-03-12T22:02:33.241Z,20.79
2023-03-12T22:03:33.235Z,20.75
2023-03-12T22:04:33.266Z,20.81
2023-03-12T22:05:33.236Z,20.79
2023-03-12T22:06:33.281Z,20.77
2023-03-12T22:07:33.248Z,20.79
2023-03-12T22:08:33.254Z,20.74
2023-03-12T22:09:33.258Z,20.73
2023-03-12T22:10:33.246Z,20.76
2023-03-12T22:11:33.291Z,20.76
2023-03-12T22:12:33.250Z,20.71
2023-03-12T22:13:33.246Z,20.77
2023-03-12T22:14:33.266Z,20.79
2023-03-12T22:15:33.278Z,20.73
2023-03-12T22:16:33.357Z,20.77
2023-03-12T22:17:33.267Z,20.75
2023-03-12T22:18:33.263Z,20.81
2023-03-12T22:19:33.286Z,20.79
2023-03-12T22:20:33.259Z,20.76
2023-03-12T22:21:33.268Z,20.81
2023-03-12T22:22:33.262Z,20.76
2023-03-12T22:23:33.250Z,20.76
2023-03-12T22:24:33.270Z,20.74
2023-03-12T22:25:33.281Z,20.74
2023-03-12T22:26:33.256Z,20.74
2023-03-12T22:27:33.267Z,20.77
2023-03-12T22:28:33.263Z,20.71
2023-03-12T22:29:33.254Z,20.70
2023-03-12T22:30:33.252Z,20.73
2023-03-12T22:31:33.325Z,20.71
2023-03-12T22:32:33.395Z,20.70
2023-03-12T22:33:33.257Z,20.80
2023-03-12T22:34:33.248Z,20.74
2023-03-12T22:35:33.253Z,20.73
2023-03-12T22:36:33.264Z,20.70
2023-03-12T22:37:33.262Z,20.67
2023-03-12T22:38:33.269Z,20.67
2023-03-12T22:39:33.274Z,20.71
2023-03-12T22:40:33.271Z,20.71
2023-03-12T22:41:33.276Z,20.73
2023-03-12T22:42:33.295Z,20.68
2023-03-12T22:43:33.295Z,20.70
2023-03-12T22:44:33.294Z,20.74
2023-03-12T22:45:33.299Z,20.73
2023-03-12T22:46:33.379Z,20.73
2023-03-12T22:47:33.311Z,20.73
2023-03-12T22:48:33.302Z,20.70
2023-03-12T22:49:33.341Z,20.71
2023-03-12T22:50:33.306Z,20.73
2023-03-12T22:51:33.306Z,20.67
2023-03-12T22:52:33.308Z,20.71
2023-03-12T22:53:33.313Z,20.70
2023-03-12T22:54:33.318Z,20.67
2023-03-12T22:55:33.313Z,20.73
2023-03-12T22:56:33.330Z,20.67
2023-03-12T22:57:33.316Z,20.76
2023-03-12T22:58:33.312Z,20.73
2023-03-12T22:59:33.316Z,20.72
2023-03-12T23:00:33.354Z,20.71
2023-03-12T23:01:33.352Z,20.74
2023-03-12T23:02:33.315Z,20.65
2023-03-12T23:03:33.315Z,20.67
2023-03-12T23:04:33.356Z,20.74
2023-03-12T23:05:33.325Z,20.68
2023-03-12T23:06:33.310Z,20.73
2023-03-12T23:07:33.327Z,20.70
2023-03-12T23:08:33.314Z,20.73
2023-03-12T23:09:33.314Z,20.73
2023-03-12T23:10:33.329Z,20.64
2023-03-12T23:11:33.305Z,20.70
2023-03-12T23:12:33.302Z,20.67
2023-03-12T23:13:33.303Z,20.70
2023-03-12T23:14:33.321Z,20.66